Time;durP1;ratioP1;P1;durP2;ratioP2;P2;SDS_P1;SDS_P2;PMS_P1;PMS_P2;Temp;Humidity;BMP_temperature;BMP_pressure;BME280_temperature;BME280_humidity;BME280_pressure;Samples;Min_cycle;Max_cycle;Signal;HPM_P1;HPM_P2
2022/11/18 00:02:00;;;;;;;3.93;3.53;;;8.80;99.90;;;;;;5015263;28;20231;-82
2022/11/18 00:04:26;;;;;;;6.73;3.77;;;8.80;99.90;;;;;;5015007;28;20234;-81
2022/11/18 00:06:53;;;;;;;5.90;3.37;;;8.80;99.90;;;;;;5015807;28;20203;-82
2022/11/18 00:09:20;;;;;;;6.00;3.67;;;8.80;99.90;;;;;;5014925;28;20530;-82
2022/11/18 00:14:33;;;;;;;7.40;4.43;;;8.80;99.90;;;;;;5014534;28;20599;-82
2022/11/18 00:17:01;;;;;;;9.13;4.33;;;8.80;99.90;;;;;;5014219;28;20286;-84
2022/11/18 00:19:30;;;;;;;4.10;3.10;;;8.70;99.90;;;;;;5013634;28;20206;-85
2022/11/18 00:21:57;;;;;;;6.97;4.10;;;8.70;99.90;;;;;;5015292;28;20226;-82
2022/11/18 00:24:25;;;;;;;7.83;4.27;;;8.70;99.90;;;;;;5014803;28;20230;-85
2022/11/18 00:26:52;;;;;;;4.83;3.70;;;8.70;99.90;;;;;;5014223;28;20203;-81
2022/11/18 00:29:19;;;;;;;6.20;4.67;;;8.70;99.90;;;;;;5015065;28;20200;-85
2022/11/18 00:31:48;;;;;;;8.10;4.20;;;8.70;99.90;;;;;;5014345;28;20786;-81
2022/11/18 00:34:17;;;;;;;6.93;4.27;;;8.60;99.90;;;;;;5014217;28;20391;-82
2022/11/18 00:36:45;;;;;;;6.30;4.27;;;8.60;99.90;;;;;;5014676;28;20250;-80
2022/11/18 00:39:14;;;;;;;5.80;4.00;;;8.60;99.90;;;;;;5015017;28;20210;-85
2022/11/18 00:44:25;;;;;;;7.00;3.90;;;8.60;99.90;;;;;;5014991;28;20328;-84
2022/11/18 00:46:54;;;;;;;7.23;3.50;;;8.60;99.90;;;;;;5034388;28;20191;-82
2022/11/18 00:49:21;;;;;;;5.80;4.73;;;8.50;99.90;;;;;;5034420;28;20253;-81
2022/11/18 00:51:48;;;;;;;5.87;3.83;;;8.60;99.90;;;;;;5034464;28;20197;-83
2022/11/18 00:54:14;;;;;;;11.57;4.40;;;8.50;99.90;;;;;;5023305;28;20213;-85
2022/11/18 00:56:41;;;;;;;6.53;4.63;;;8.50;99.90;;;;;;5033867;28;20206;-81
2022/11/18 00:59:08;;;;;;;8.43;5.13;;;8.50;99.90;;;;;;5034301;28;20202;-81
2022/11/18 01:01:35;;;;;;;5.10;4.60;;;8.50;99.90;;;;;;5019264;28;20623;-82
2022/11/18 01:04:04;;;;;;;5.03;4.53;;;8.50;99.90;;;;;;5014038;28;20204;-81
2022/11/18 01:06:31;;;;;;;9.53;5.60;;;8.40;99.90;;;;;;5013845;28;20204;-79
2022/11/18 01:08:58;;;;;;;5.50;4.83;;;8.40;99.90;;;;;;5012673;28;20207;-80
2022/11/18 01:14:09;;;;;;;6.40;5.00;;;8.40;99.90;;;;;;5013472;28;20281;-81
2022/11/18 01:16:36;;;;;;;7.27;5.60;;;8.40;99.90;;;;;;5013327;28;20218;-81
2022/11/18 01:19:05;;;;;;;8.23;5.03;;;8.40;99.90;;;;;;5013727;28;20209;-84
2022/11/18 01:21:31;;;;;;;7.93;5.13;;;8.40;99.90;;;;;;5013713;28;20262;-83
2022/11/18 01:23:59;;;;;;;6.43;4.90;;;8.40;99.90;;;;;;5031588;28;20218;-83
2022/11/18 01:26:25;;;;;;;6.40;4.83;;;8.40;99.90;;;;;;5033075;28;20236;-80
2022/11/18 01:28:56;;;;;;;7.33;5.23;;;8.30;99.90;;;;;;5032886;28;20201;-82
2022/11/18 01:31:23;;;;;;;7.30;5.27;;;8.30;99.90;;;;;;5020326;28;20764;-80
2022/11/18 01:33:50;;;;;;;7.73;5.20;;;8.20;99.90;;;;;;5013088;28;20610;-80
2022/11/18 01:36:20;;;;;;;7.53;5.17;;;8.30;99.90;;;;;;5021718;28;20202;-80
2022/11/18 01:38:47;;;;;;;11.20;5.43;;;8.20;99.90;;;;;;5032889;28;20193;-78
2022/11/18 01:41:14;;;;;;;9.67;5.97;;;8.20;99.90;;;;;;5032522;28;20202;-78
2022/11/18 01:43:50;;;;;;;7.37;5.27;;;8.20;99.90;;;;;;5026882;28;20226;-80
2022/11/18 01:46:17;;;;;;;13.10;5.37;;;8.30;99.90;;;;;;5021185;28;20226;-81
2022/11/18 01:48:47;;;;;;;7.83;6.03;;;8.20;99.90;;;;;;5032516;28;20199;-80
2022/11/18 01:51:17;;;;;;;7.77;5.63;;;8.30;99.90;;;;;;5032058;28;20229;-79
2022/11/18 01:53:49;;;;;;;6.93;5.43;;;8.20;99.90;;;;;;5018687;28;20213;-78
2022/11/18 01:56:20;;;;;;;8.63;5.80;;;8.20;99.90;;;;;;5013087;28;20241;-79
2022/11/18 01:58:51;;;;;;;8.03;5.30;;;8.20;99.90;;;;;;5012211;28;20214;-80
2022/11/18 02:01:19;;;;;;;7.03;5.80;;;8.20;99.90;;;;;;5012245;28;20196;-79
2022/11/18 02:03:47;;;;;;;6.23;5.63;;;8.20;99.90;;;;;;5012077;28;20218;-79
2022/11/18 02:06:15;;;;;;;9.80;6.70;;;8.20;99.90;;;;;;5012120;28;20666;-79
2022/11/18 02:08:43;;;;;;;8.23;5.90;;;8.20;99.90;;;;;;5012695;28;20654;-80
2022/11/18 02:13:54;;;;;;;10.03;6.23;;;8.20;99.90;;;;;;5011648;28;20261;-79
2022/11/18 02:16:27;;;;;;;7.63;6.43;;;8.20;99.90;;;;;;5013385;28;20303;-82
2022/11/18 02:18:58;;;;;;;8.73;6.30;;;8.10;99.90;;;;;;5032295;28;20202;-81
2022/11/18 02:21:37;;;;;;;9.67;6.80;;;8.10;99.90;;;;;;5022700;28;20211;-81
2022/11/18 02:24:34;;;;;;;13.13;7.10;;;8.20;99.90;;;;;;5013052;28;20205;-80
2022/11/18 02:27:35;;;;;;;9.57;6.10;;;8.10;99.90;;;;;;5007517;28;20203;-81
2022/11/18 02:30:07;;;;;;;9.03;6.87;;;8.10;99.90;;;;;;4987726;28;20205;-80
2022/11/18 02:32:40;;;;;;;9.87;7.40;;;8.10;99.90;;;;;;5025445;28;20294;-82
2022/11/18 02:35:14;;;;;;;8.80;7.17;;;8.10;99.90;;;;;;5031719;28;20195;-83
2022/11/18 02:37:48;;;;;;;9.33;7.50;;;8.10;99.90;;;;;;5032045;28;20255;-81
2022/11/18 02:40:20;;;;;;;12.47;7.57;;;8.10;99.90;;;;;;5030194;28;20204;-80
2022/11/18 02:42:52;;;;;;;9.93;8.30;;;8.10;99.90;;;;;;5031840;28;20222;-79
2022/11/18 02:45:22;;;;;;;14.27;7.80;;;8.00;99.90;;;;;;5031020;28;20673;-79
2022/11/18 02:47:51;;;;;;;8.93;7.03;;;8.00;99.90;;;;;;5011154;28;20195;-79
2022/11/18 02:50:22;;;;;;;11.17;7.10;;;8.00;99.90;;;;;;5011966;28;20235;-81
2022/11/18 02:52:54;;;;;;;10.87;8.20;;;8.00;99.90;;;;;;5012343;28;20231;-81
2022/11/18 02:55:23;;;;;;;8.77;7.27;;;8.00;99.90;;;;;;5011949;28;20303;-82
2022/11/18 02:57:51;;;;;;;9.97;7.90;;;7.90;99.90;;;;;;5029404;28;20302;-81
2022/11/18 03:00:19;;;;;;;9.13;7.97;;;8.00;99.90;;;;;;5031345;28;20207;-80
2022/11/18 03:02:48;;;;;;;9.73;7.93;;;8.00;99.90;;;;;;5031689;28;20237;-80
2022/11/18 03:05:21;;;;;;;8.83;8.00;;;8.00;99.90;;;;;;5035194;28;20199;-82
2022/11/18 03:07:53;;;;;;;10.50;8.07;;;7.90;99.90;;;;;;5036211;28;20264;-81
2022/11/18 03:10:23;;;;;;;10.30;8.20;;;7.90;99.90;;;;;;5022568;28;20499;-81
2022/11/18 03:13:01;;;;;;;12.47;8.60;;;7.90;99.90;;;;;;5015737;28;20204;-80
2022/11/18 03:15:37;;;;;;;11.50;8.37;;;7.90;99.90;;;;;;5016004;28;20211;-82
2022/11/18 03:18:13;;;;;;;11.17;8.63;;;7.90;99.90;;;;;;5016110;28;20290;-85
2022/11/18 03:20:47;;;;;;;9.07;7.57;;;7.90;99.90;;;;;;5017287;28;20215;-85
2022/11/18 03:23:21;;;;;;;9.33;8.33;;;7.90;99.90;;;;;;5016709;28;20503;-85
2022/11/18 03:25:53;;;;;;;13.63;8.77;;;7.90;99.90;;;;;;5028138;28;20285;-85
2022/11/18 03:28:26;;;;;;;13.20;9.00;;;7.90;99.90;;;;;;5036760;28;20205;-83
2022/11/18 03:30:59;;;;;;;12.40;9.13;;;7.90;99.90;;;;;;5036868;28;20209;-85
2022/11/18 03:33:33;;;;;;;13.63;8.37;;;7.90;99.90;;;;;;5031934;28;20261;-85
2022/11/18 03:36:03;;;;;;;14.57;8.83;;;7.90;99.90;;;;;;5016296;28;20195;-83
2022/11/18 03:38:33;;;;;;;15.03;8.80;;;7.90;99.90;;;;;;5021317;28;20210;-82
2022/11/18 03:41:03;;;;;;;11.13;9.07;;;7.90;99.90;;;;;;5036489;28;20198;-83
2022/11/18 03:43:36;;;;;;;10.87;9.20;;;7.90;99.90;;;;;;5028302;28;20626;-83
2022/11/18 03:46:08;;;;;;;14.87;9.00;;;7.90;99.90;;;;;;5016271;28;20239;-82
2022/11/18 03:48:39;;;;;;;11.93;9.07;;;7.90;99.90;;;;;;5016062;28;20602;-85
2022/11/18 03:51:09;;;;;;;12.40;8.80;;;7.90;99.90;;;;;;5016397;28;20219;-84
2022/11/18 03:53:39;;;;;;;14.27;9.50;;;7.90;99.90;;;;;;5016303;28;20204;-84
2022/11/18 03:56:11;;;;;;;12.20;8.67;;;7.90;99.90;;;;;;5016341;28;20195;-84
2022/11/18 03:58:45;;;;;;;12.43;9.07;;;7.90;99.90;;;;;;5016062;28;20261;-82
2022/11/18 04:01:17;;;;;;;11.60;9.70;;;7.90;99.90;;;;;;5016290;28;20203;-84
2022/11/18 04:03:45;;;;;;;13.50;9.93;;;7.80;99.90;;;;;;5014533;28;20227;-85
2022/11/18 04:06:21;;;;;;;16.90;10.00;;;7.90;99.90;;;;;;5014184;28;20290;-81
2022/11/18 04:08:54;;;;;;;15.03;9.80;;;7.90;99.90;;;;;;5014746;28;20196;-81
2022/11/18 04:14:12;;;;;;;15.10;10.00;;;7.90;99.90;;;;;;5014375;28;20183;-80
2022/11/18 04:16:42;;;;;;;13.60;10.03;;;7.90;99.90;;;;;;5013543;28;20206;-81
2022/11/18 04:19:09;;;;;;;13.40;10.10;;;8.00;99.90;;;;;;5022638;28;20198;-81
2022/11/18 04:21:36;;;;;;;13.63;10.60;;;8.00;99.90;;;;;;5032838;28;20226;-82
2022/11/18 04:24:03;;;;;;;14.37;10.77;;;8.00;99.90;;;;;;5034193;28;20249;-79
2022/11/18 04:26:31;;;;;;;16.27;10.40;;;8.00;99.90;;;;;;5033341;28;20202;-78
2022/11/18 04:28:58;;;;;;;16.27;11.60;;;8.00;99.90;;;;;;5027857;28;20199;-81
2022/11/18 04:31:24;;;;;;;14.37;10.27;;;8.00;99.90;;;;;;5013342;28;20195;-79
2022/11/18 04:33:53;;;;;;;14.77;9.87;;;8.00;99.90;;;;;;5013968;28;20201;-79
2022/11/18 04:36:20;;;;;;;16.57;10.60;;;8.00;99.90;;;;;;5013330;28;20203;-80
2022/11/18 04:38:46;;;;;;;13.83;10.27;;;8.00;99.90;;;;;;5012906;28;20203;-81
2022/11/18 04:41:13;;;;;;;13.47;9.97;;;8.00;99.90;;;;;;5013800;28;20210;-80
2022/11/18 04:43:41;;;;;;;19.17;10.40;;;8.00;99.90;;;;;;5013666;28;20655;-80
2022/11/18 04:46:08;;;;;;;11.57;10.00;;;8.00;99.90;;;;;;5027196;22;20248;-79
2022/11/18 04:48:35;;;;;;;13.20;10.20;;;8.00;99.90;;;;;;5043991;28;20592;-79
2022/11/18 04:51:05;;;;;;;13.53;10.33;;;8.00;99.90;;;;;;5015850;28;20227;-79
2022/11/18 04:53:32;;;;;;;17.77;11.17;;;8.00;99.90;;;;;;5013214;28;20188;-79
2022/11/18 04:56:05;;;;;;;14.77;9.97;;;7.90;99.90;;;;;;5013840;28;20204;-80
2022/11/18 04:58:32;;;;;;;11.93;10.13;;;8.00;99.90;;;;;;5013465;28;20219;-79
2022/11/18 05:00:59;;;;;;;16.67;10.83;;;8.00;99.90;;;;;;5013167;28;20199;-81
2022/11/18 05:03:26;;;;;;;14.37;10.00;;;8.00;99.90;;;;;;5013212;28;20229;-82
2022/11/18 05:05:52;;;;;;;12.90;11.23;;;8.00;99.90;;;;;;5013579;28;20210;-81
2022/11/18 05:08:21;;;;;;;15.40;10.60;;;8.00;99.90;;;;;;5013148;28;20222;-82
2022/11/18 05:10:47;;;;;;;14.60;12.03;;;8.00;99.90;;;;;;5013804;28;20381;-79
2022/11/18 05:13:13;;;;;;;17.23;10.97;;;8.00;99.90;;;;;;5013183;28;20203;-81
2022/11/18 05:15:40;;;;;;;14.33;11.27;;;8.00;99.90;;;;;;5013209;28;20205;-80
2022/11/18 05:18:10;;;;;;;15.43;11.10;;;8.00;99.90;;;;;;5013544;28;20295;-81
2022/11/18 05:20:37;;;;;;;14.07;10.87;;;8.10;99.90;;;;;;5013478;28;20211;-79
2022/11/18 05:23:04;;;;;;;17.37;11.20;;;8.00;99.90;;;;;;5013140;28;20219;-80
2022/11/18 05:25:32;;;;;;;18.80;12.23;;;8.10;99.90;;;;;;5025894;28;20206;-80
2022/11/18 05:27:59;;;;;;;19.40;11.73;;;8.10;99.90;;;;;;5032648;28;20210;-83
2022/11/18 05:30:26;;;;;;;17.93;11.33;;;8.10;99.90;;;;;;5020372;28;20211;-82
2022/11/18 05:32:53;;;;;;;16.33;11.60;;;8.20;99.90;;;;;;5012821;28;20492;-81
2022/11/18 05:35:20;;;;;;;19.57;12.20;;;8.20;99.90;;;;;;5011876;28;20206;-80
2022/11/18 05:37:46;;;;;;;20.40;12.23;;;8.20;99.90;;;;;;5012697;28;20211;-81
2022/11/18 05:40:13;;;;;;;17.67;11.50;;;8.20;99.90;;;;;;5013216;28;20225;-82
2022/11/18 05:45:26;;;;;;;15.67;11.67;;;8.20;99.90;;;;;;5012820;28;20206;-79
2022/11/18 05:48:03;;;;;;;17.47;12.17;;;8.20;99.90;;;;;;5012675;28;20255;-79
2022/11/18 05:50:31;;;;;;;23.70;12.67;;;8.30;99.90;;;;;;5012138;28;20543;-81
2022/11/18 05:52:58;;;;;;;21.17;12.77;;;8.30;99.90;;;;;;5012573;28;20194;-82
2022/11/18 05:55:28;;;;;;;15.87;11.17;;;8.30;99.90;;;;;;5012735;28;20249;-80
2022/11/18 05:57:57;;;;;;;16.77;12.57;;;8.30;99.90;;;;;;5012208;28;20495;-79
2022/11/18 06:00:24;;;;;;;18.60;11.73;;;8.40;99.90;;;;;;5012618;28;20211;-80
2022/11/18 06:02:54;;;;;;;17.00;11.67;;;8.30;99.90;;;;;;5014874;28;20703;-79
2022/11/18 06:05:23;;;;;;;20.00;12.80;;;8.40;99.90;;;;;;5023518;28;20238;-81
2022/11/18 06:07:50;;;;;;;18.77;13.10;;;8.40;99.90;;;;;;5012106;28;20615;-81
2022/11/18 06:10:21;;;;;;;21.83;12.97;;;8.40;99.90;;;;;;5012213;28;20211;-80
2022/11/18 06:12:53;;;;;;;21.23;12.80;;;8.40;99.90;;;;;;5013947;28;20199;-80
2022/11/18 06:15:24;;;;;;;19.60;12.27;;;8.40;99.90;;;;;;5032126;28;20285;-81
2022/11/18 06:17:55;;;;;;;19.83;12.30;;;8.40;99.90;;;;;;5020809;28;20200;-81
2022/11/18 06:20:22;;;;;;;19.03;12.20;;;8.40;99.90;;;;;;5012323;28;20204;-84
2022/11/18 06:22:51;;;;;;;18.63;13.03;;;8.40;99.90;;;;;;5012295;28;20219;-80
2022/11/18 06:25:18;;;;;;;18.20;12.47;;;8.40;99.90;;;;;;5011772;28;20592;-80
2022/11/18 06:27:46;;;;;;;21.57;12.33;;;8.50;99.90;;;;;;5012467;28;20199;-81
2022/11/18 06:30:14;;;;;;;18.87;12.97;;;8.50;99.90;;;;;;5011824;28;20552;-81
2022/11/18 06:32:42;;;;;;;15.20;12.10;;;8.50;99.90;;;;;;5011702;28;20213;-79
2022/11/18 06:35:09;;;;;;;17.20;11.93;;;8.50;99.90;;;;;;5012396;28;20207;-80
2022/11/18 06:37:36;;;;;;;17.23;11.87;;;8.50;99.90;;;;;;5022295;28;20540;-80
2022/11/18 06:40:04;;;;;;;20.50;12.70;;;8.50;99.90;;;;;;5033386;28;20302;-81
2022/11/18 06:45:15;;;;;;;17.97;12.37;;;8.40;99.90;;;;;;5033148;28;20189;-81
2022/11/18 06:47:43;;;;;;;15.37;11.17;;;8.50;99.90;;;;;;5015440;28;20665;-80
2022/11/18 06:50:10;;;;;;;18.57;12.30;;;8.50;99.90;;;;;;5015916;28;20220;-83
2022/11/18 06:52:37;;;;;;;18.97;11.93;;;8.50;99.90;;;;;;5016280;28;20203;-83
2022/11/18 06:55:07;;;;;;;19.07;12.07;;;8.50;99.90;;;;;;5016680;28;20199;-80
2022/11/18 06:57:33;;;;;;;15.27;11.27;;;8.50;99.90;;;;;;5036288;28;20225;-84
2022/11/18 07:00:00;;;;;;;15.87;11.07;;;8.50;99.90;;;;;;5035853;28;20205;-82
2022/11/18 07:02:27;;;;;;;19.23;11.67;;;8.50;99.90;;;;;;5036254;28;20205;-82
2022/11/18 07:04:56;;;;;;;17.17;11.77;;;8.50;99.90;;;;;;5035237;28;20233;-84
2022/11/18 07:07:22;;;;;;;21.27;12.43;;;8.60;99.90;;;;;;5017483;28;20657;-81
2022/11/18 07:09:49;;;;;;;17.27;12.07;;;8.60;99.90;;;;;;5027639;28;20203;-81
2022/11/18 07:12:16;;;;;;;16.50;11.77;;;8.60;99.90;;;;;;5036360;28;20595;-84
2022/11/18 07:14:43;;;;;;;15.93;11.97;;;8.60;99.90;;;;;;5035679;28;20791;-80
2022/11/18 07:17:10;;;;;;;21.17;12.33;;;8.60;99.90;;;;;;5028147;28;20548;-80
2022/11/18 07:19:37;;;;;;;18.30;11.67;;;8.50;99.90;;;;;;5015799;28;20290;-83
2022/11/18 07:22:06;;;;;;;14.70;11.30;;;8.50;99.90;;;;;;5014461;28;20288;-81
2022/11/18 07:24:34;;;;;;;14.93;11.57;;;8.50;99.90;;;;;;5015557;28;20222;-83
2022/11/18 07:27:00;;;;;;;16.90;12.00;;;8.60;99.90;;;;;;5015639;28;20233;-80
2022/11/18 07:29:28;;;;;;;16.13;10.40;;;8.50;99.90;;;;;;5014568;28;20608;-79
2022/11/18 07:31:54;;;;;;;17.67;12.17;;;8.60;99.90;;;;;;5015224;28;20207;-81
2022/11/18 07:34:21;;;;;;;14.90;11.90;;;8.60;99.90;;;;;;5014797;28;20206;-80
2022/11/18 07:36:48;;;;;;;12.23;10.13;;;8.60;99.90;;;;;;5021578;28;20202;-81
2022/11/18 07:39:17;;;;;;;12.80;10.90;;;8.60;99.90;;;;;;5032117;28;20209;-81
2022/11/18 07:41:43;;;;;;;16.37;11.10;;;8.60;99.90;;;;;;5022266;28;20559;-79
2022/11/18 07:44:12;;;;;;;17.93;10.40;;;8.60;99.90;;;;;;5016888;28;20223;-79
2022/11/18 07:46:39;;;;;;;14.13;11.00;;;8.60;99.90;;;;;;5034563;28;20725;-82
2022/11/18 07:49:08;;;;;;;14.17;10.70;;;8.60;99.90;;;;;;5036676;28;20669;-86
2022/11/18 07:51:37;;;;;;;18.73;11.03;;;8.60;99.90;;;;;;5027102;28;20202;-83
2022/11/18 07:54:17;;;;;;;17.73;10.37;;;8.60;99.90;;;;;;5036310;28;20202;-82
2022/11/18 07:56:44;;;;;;;21.03;11.17;;;8.60;99.90;;;;;;5033569;28;20202;-82
2022/11/18 07:59:11;;;;;;;17.17;10.10;;;8.60;99.90;;;;;;5032060;28;20221;-80
2022/11/18 08:01:38;;;;;;;15.83;11.40;;;8.60;99.90;;;;;;5034847;28;20206;-81
2022/11/18 08:04:07;;;;;;;12.83;10.37;;;8.60;99.90;;;;;;5035860;28;20230;-82
2022/11/18 08:06:35;;;;;;;13.90;10.27;;;8.60;99.90;;;;;;5033545;28;20212;-81
2022/11/18 08:09:04;;;;;;;14.07;11.00;;;8.60;99.90;;;;;;5031386;28;20217;-80
2022/11/18 08:11:33;;;;;;;18.30;10.83;;;8.60;99.90;;;;;;5034939;28;20278;-80
2022/11/18 08:14:00;;;;;;;16.13;11.63;;;8.60;99.90;;;;;;5036560;28;20546;-80
2022/11/18 08:16:27;;;;;;;14.53;10.90;;;8.60;99.90;;;;;;5023794;28;20211;-82
2022/11/18 08:18:55;;;;;;;13.13;11.00;;;8.60;99.90;;;;;;5015837;28;20203;-78
2022/11/18 08:21:23;;;;;;;16.13;11.47;;;8.60;99.90;;;;;;5013801;28;20210;-77
2022/11/18 08:23:51;;;;;;;15.77;11.63;;;8.70;99.90;;;;;;5012914;28;20976;-82
2022/11/18 08:26:18;;;;;;;17.00;11.20;;;8.70;99.90;;;;;;5023578;28;20198;-83
2022/11/18 08:28:46;;;;;;;13.20;11.00;;;8.70;99.90;;;;;;5034253;28;20210;-83
2022/11/18 08:31:16;;;;;;;14.90;10.70;;;8.70;99.90;;;;;;5015639;28;20298;-83
2022/11/18 08:33:44;;;;;;;14.47;11.50;;;8.70;99.90;;;;;;5013882;28;20183;-79
2022/11/18 08:36:15;;;;;;;28.70;12.10;;;8.70;99.90;;;;;;5013302;28;20206;-79
2022/11/18 08:38:42;;;;;;;14.47;10.57;;;8.70;99.90;;;;;;5013044;28;20654;-77
2022/11/18 08:41:12;;;;;;;14.83;10.77;;;8.70;99.90;;;;;;5012993;28;20208;-78
2022/11/18 08:43:39;;;;;;;14.10;9.73;;;8.70;99.90;;;;;;5013200;28;20220;-81
2022/11/18 08:46:07;;;;;;;12.37;9.60;;;8.80;99.90;;;;;;5012798;28;20235;-79
2022/11/18 08:48:34;;;;;;;12.57;8.87;;;8.80;99.90;;;;;;5013613;28;20611;-80
2022/11/18 08:51:01;;;;;;;15.67;9.47;;;8.80;99.90;;;;;;5013583;28;20227;-79
2022/11/18 08:53:28;;;;;;;14.23;8.77;;;8.80;99.90;;;;;;5012736;28;20199;-79
2022/11/18 08:55:56;;;;;;;12.73;8.40;;;8.80;99.90;;;;;;5013344;28;20212;-78
2022/11/18 08:58:23;;;;;;;11.60;8.53;;;8.80;99.90;;;;;;5013584;28;20210;-80
2022/11/18 09:00:50;;;;;;;14.67;8.97;;;8.80;99.90;;;;;;5012923;28;20210;-80
2022/11/18 09:03:18;;;;;;;14.33;8.43;;;8.90;99.90;;;;;;5012660;28;20215;-79
2022/11/18 09:05:45;;;;;;;9.97;7.87;;;8.90;99.90;;;;;;5012611;28;20206;-78
2022/11/18 09:08:12;;;;;;;11.93;8.53;;;8.90;99.90;;;;;;5013510;28;20195;-81
2022/11/18 09:10:39;;;;;;;12.57;8.37;;;8.90;99.90;;;;;;5013166;28;20201;-78
2022/11/18 09:13:06;;;;;;;13.63;7.73;;;8.90;99.90;;;;;;5012617;28;20265;-80
2022/11/18 09:15:33;;;;;;;11.73;7.70;;;9.00;99.90;;;;;;5013576;28;20199;-81
2022/11/18 09:18:00;;;;;;;9.43;7.60;;;9.00;99.90;;;;;;5013142;28;20215;-81
2022/11/18 09:20:28;;;;;;;10.37;7.60;;;9.00;99.90;;;;;;5012816;28;20515;-79
2022/11/18 09:22:55;;;;;;;12.77;7.70;;;9.00;99.90;;;;;;5033031;28;20205;-80
2022/11/18 09:25:22;;;;;;;14.47;8.30;;;9.10;99.90;;;;;;5032641;28;20908;-78
2022/11/18 09:27:51;;;;;;;9.03;7.30;;;9.10;99.90;;;;;;5032134;28;20505;-79
2022/11/18 09:30:18;;;;;;;14.50;8.40;;;9.10;99.90;;;;;;5028246;28;21120;-82
2022/11/18 09:32:45;;;;;;;13.53;8.23;;;9.10;99.90;;;;;;5012585;28;20217;-79
2022/11/18 09:35:12;;;;;;;10.30;7.97;;;9.20;99.90;;;;;;5012501;28;20286;-80
2022/11/18 09:37:40;;;;;;;13.90;8.20;;;9.20;99.90;;;;;;5025940;28;20202;-82
2022/11/18 09:40:13;;;;;;;13.43;7.17;;;9.20;99.90;;;;;;5032468;28;20195;-79
2022/11/18 09:42:53;;;;;;;11.50;7.70;;;9.30;99.90;;;;;;5028574;28;20521;-79
2022/11/18 09:45:24;;;;;;;12.63;7.40;;;9.30;99.90;;;;;;5012532;28;20239;-82
2022/11/18 09:47:51;;;;;;;14.60;7.40;;;9.30;99.90;;;;;;5045994;28;20240;-78
2022/11/18 09:50:21;;;;;;;11.90;7.60;;;9.30;99.90;;;;;;5047193;28;20521;-78
2022/11/18 09:53:00;;;;;;;11.93;6.90;;;9.30;99.90;;;;;;5027301;28;20205;-78
2022/11/18 09:55:29;;;;;;;14.50;7.90;;;9.40;99.90;;;;;;5011700;28;20275;-79
2022/11/18 09:57:58;;;;;;;8.57;7.00;;;9.40;99.90;;;;;;5012006;28;20199;-77
2022/11/18 10:00:29;;;;;;;13.70;6.70;;;9.40;99.90;;;;;;5014145;28;20630;-77
2022/11/18 10:03:00;;;;;;;9.33;6.60;;;9.40;99.90;;;;;;5031498;28;20226;-77
2022/11/18 10:05:29;;;;;;;10.50;7.50;;;9.50;99.90;;;;;;5018537;28;20227;-78
2022/11/18 10:08:21;;;;;;;11.70;7.23;;;9.50;99.90;;;;;;5012531;28;20199;-78
2022/11/18 10:10:55;;;;;;;13.97;8.97;;;9.50;99.90;;;;;;5011541;28;20215;-79
2022/11/18 10:13:32;;;;;;;14.57;8.03;;;9.60;99.90;;;;;;5012562;28;20286;-80
2022/11/18 10:16:08;;;;;;;13.00;8.33;;;9.70;99.90;;;;;;5016356;28;20663;-78
2022/11/18 10:18:42;;;;;;;13.37;6.80;;;9.70;99.90;;;;;;5026511;28;20198;-78
2022/11/18 10:21:21;;;;;;;14.37;6.73;;;9.80;99.90;;;;;;5032473;28;20227;-80
2022/11/18 10:23:53;;;;;;;9.87;6.50;;;9.80;99.90;;;;;;5022181;28;20202;-79
2022/11/18 10:26:37;;;;;;;10.33;6.97;;;9.90;99.90;;;;;;5035773;28;20205;-79
2022/11/18 10:29:08;;;;;;;8.23;5.73;;;9.80;99.90;;;;;;5028735;28;20214;-79
2022/11/18 10:31:37;;;;;;;11.33;6.30;;;9.90;99.90;;;;;;5015425;28;20191;-80
2022/11/18 10:34:04;;;;;;;10.90;6.40;;;9.90;99.90;;;;;;5015276;28;20199;-79
2022/11/18 10:36:33;;;;;;;10.83;6.23;;;9.90;99.90;;;;;;5015605;28;20203;-79
2022/11/18 10:39:12;;;;;;;10.57;6.67;;;9.90;99.90;;;;;;5015299;28;20229;-80
2022/11/18 10:41:44;;;;;;;11.50;5.70;;;9.90;99.90;;;;;;5016974;28;20198;-84
2022/11/18 10:44:36;;;;;;;8.03;6.00;;;9.90;99.90;;;;;;5016953;28;20641;-82
2022/11/18 10:47:23;;;;;;;10.77;6.10;;;9.90;99.90;;;;;;5029592;28;20238;-84
2022/11/18 10:49:50;;;;;;;12.10;6.13;;;9.90;99.90;;;;;;5036727;28;20229;-83
2022/11/18 10:52:17;;;;;;;10.67;6.40;;;10.00;99.90;;;;;;5035270;28;20690;-82
2022/11/18 10:54:46;;;;;;;11.03;6.30;;;10.00;99.90;;;;;;5035636;28;20194;-81
2022/11/18 10:57:20;;;;;;;10.53;6.00;;;10.00;99.90;;;;;;5024031;28;20207;-80
2022/11/18 10:59:50;;;;;;;11.33;6.00;;;10.10;99.90;;;;;;5014706;28;20198;-79
2022/11/18 11:02:20;;;;;;;11.90;6.43;;;10.20;99.90;;;;;;5015600;28;20215;-81
2022/11/18 11:04:49;;;;;;;11.17;6.20;;;10.20;99.90;;;;;;5015163;28;20219;-81
2022/11/18 11:07:30;;;;;;;11.13;5.60;;;10.20;99.90;;;;;;5014876;28;20203;-79
2022/11/18 11:10:18;;;;;;;7.30;6.13;;;10.20;99.90;;;;;;5015564;28;20214;-79
2022/11/18 11:12:49;;;;;;;11.03;7.33;;;10.30;99.90;;;;;;5014879;28;20230;-80
2022/11/18 11:15:22;;;;;;;10.27;7.33;;;10.40;99.90;;;;;;5015656;28;20192;-79
2022/11/18 11:20:35;;;;;;;8.03;6.53;;;10.40;99.90;;;;;;5014704;28;20202;-84
2022/11/18 11:23:08;;;;;;;9.30;6.87;;;10.40;99.90;;;;;;5015542;28;20199;-83
2022/11/18 11:25:43;;;;;;;10.73;8.30;;;10.50;99.90;;;;;;5014766;28;20231;-80
2022/11/18 11:28:19;;;;;;;14.27;7.87;;;10.50;99.90;;;;;;5048967;22;20245;-79
2022/11/18 11:30:54;;;;;;;11.27;7.50;;;10.50;99.90;;;;;;5065634;28;20197;-79
2022/11/18 11:33:32;;;;;;;16.13;8.47;;;10.50;99.90;;;;;;5065390;28;20275;-79
2022/11/18 11:36:31;;;;;;;11.93;7.37;;;10.50;99.90;;;;;;5057397;28;20568;-79
2022/11/18 11:39:06;;;;;;;13.53;8.20;;;10.60;99.90;;;;;;5074737;28;20232;-80
2022/11/18 11:41:43;;;;;;;9.43;7.90;;;10.60;99.90;;;;;;5083157;28;20222;-80
2022/11/18 11:44:23;;;;;;;10.87;7.40;;;10.60;99.90;;;;;;5095424;28;20283;-84
2022/11/18 11:49:53;;;;;;;12.20;7.63;;;10.60;99.90;;;;;;5061187;28;20267;-79
2022/11/18 11:52:31;;;;;;;12.90;8.07;;;10.60;99.90;;;;;;5035734;28;20210;-82
2022/11/18 11:55:07;;;;;;;13.20;8.83;;;10.60;99.90;;;;;;5051097;28;20194;-78
2022/11/18 11:57:47;;;;;;;15.47;8.43;;;10.60;99.90;;;;;;5033903;28;20718;-78
2022/11/18 12:00:16;;;;;;;11.53;7.73;;;10.60;99.90;;;;;;5037779;28;20206;-81
2022/11/18 12:03:05;;;;;;;13.17;8.37;;;10.60;99.90;;;;;;5055138;28;20232;-79
2022/11/18 12:05:35;;;;;;;12.67;8.33;;;10.60;99.90;;;;;;5034701;28;20233;-78
2022/11/18 12:08:06;;;;;;;14.70;9.73;;;10.60;99.90;;;;;;5033657;28;20199;-78
2022/11/18 12:10:46;;;;;;;16.33;10.17;;;10.60;99.90;;;;;;5033784;28;20199;-77
2022/11/18 12:13:38;;;;;;;12.60;9.77;;;10.60;99.90;;;;;;5047022;28;20202;-77
2022/11/18 12:16:18;;;;;;;13.47;10.60;;;10.50;99.90;;;;;;5033741;28;20183;-81
2022/11/18 12:18:50;;;;;;;11.73;9.03;;;10.60;99.90;;;;;;5035200;28;20202;-77
2022/11/18 12:21:56;;;;;;;14.57;9.80;;;10.50;99.90;;;;;;5034334;28;20198;-79
2022/11/18 12:24:33;;;;;;;14.10;10.20;;;10.50;99.90;;;;;;5034742;28;20272;-80
2022/11/18 12:27:01;;;;;;;11.67;9.97;;;10.50;99.90;;;;;;5034146;28;20194;-77
2022/11/18 12:29:38;;;;;;;14.63;10.13;;;10.50;99.90;;;;;;5033787;28;20236;-78
2022/11/18 12:32:27;;;;;;;17.77;11.60;;;10.50;99.90;;;;;;5034211;28;20214;-80
2022/11/18 12:34:59;;;;;;;16.80;10.63;;;10.50;99.90;;;;;;5050936;28;20498;-79
2022/11/18 12:37:45;;;;;;;13.40;10.77;;;10.50;99.90;;;;;;5040251;28;20282;-81
2022/11/18 12:40:32;;;;;;;12.93;10.40;;;10.50;99.90;;;;;;5041596;28;20202;-81
2022/11/18 12:45:53;;;;;;;16.57;11.70;;;10.50;99.90;;;;;;5040514;28;20576;-77
2022/11/18 12:48:35;;;;;;;15.13;11.20;;;10.50;99.90;;;;;;5044030;28;20189;-77
2022/11/18 12:51:30;;;;;;;16.50;11.87;;;10.50;99.90;;;;;;5050864;28;20225;-81
2022/11/18 12:53:58;;;;;;;16.40;12.83;;;10.60;99.90;;;;;;5053358;28;20194;-78
2022/11/18 12:56:27;;;;;;;13.90;12.00;;;10.50;99.90;;;;;;5053578;28;20198;-77
2022/11/18 12:58:56;;;;;;;17.60;12.30;;;10.50;99.90;;;;;;5036443;28;20234;-78
2022/11/18 13:01:26;;;;;;;15.00;12.30;;;10.50;99.90;;;;;;5033389;28;20199;-77
2022/11/18 13:04:05;;;;;;;16.60;12.70;;;10.50;99.90;;;;;;5032882;28;20202;-77
2022/11/18 13:06:34;;;;;;;13.43;12.00;;;10.50;99.90;;;;;;5032428;28;20206;-77
2022/11/18 13:09:04;;;;;;;15.00;12.43;;;10.50;99.90;;;;;;5032956;28;20206;-77
2022/11/18 13:11:45;;;;;;;15.83;11.67;;;10.50;99.90;;;;;;5046852;28;20216;-80
2022/11/18 13:20:19;;;;;;;17.83;12.77;;;10.50;99.90;;;;;;5040305;28;20329;-77
2022/11/18 13:25:47;;;;;;;15.47;11.87;;;10.40;99.90;;;;;;4996082;28;20946;-77
2022/11/18 13:28:25;;;;;;;13.47;11.97;;;10.40;99.90;;;;;;5031375;28;20248;-77
2022/11/18 13:31:00;;;;;;;18.40;12.40;;;10.50;99.90;;;;;;5049965;28;20598;-78
2022/11/18 13:33:29;;;;;;;16.77;12.67;;;10.50;99.90;;;;;;5051981;28;20335;-79
2022/11/18 13:35:56;;;;;;;16.90;12.97;;;10.50;99.90;;;;;;5044794;28;20220;-78
2022/11/18 13:38:24;;;;;;;15.03;12.17;;;10.40;99.90;;;;;;5032715;28;20202;-77